^^
Datos históricos de la estación: Murcia-Puente Tocinos
Diario Informe para Enero 27, 2019 Unidades:  Ambas    Ingés   Métrico
Diario Semanal Mensual Anual
  Máxima: Mínima: Promedio:
Temperatura: 72.5 °F /  22.5 °C 57.6 °F /  14.2 °C 63.7 °F /  17.6 °C
Punto de rocio: 60.3 °F /  15.7 °C 54.9 °F /  12.7 °C 57.9 °F /  14.4 °C
Humedad: 91% 63% 82%
Velocidad viento: 7.6mph /  12.2km/h - 2.7mph /  4.4km/h
Racha viento: 15mph /  24.1km/h - -
Viento- - SSE
Presión: 30.2 in /  1021.4 hPa 30.1 in /  1018.1 hPa -
Precipitación: 0 in /  0.0 mm    
 
 
Tabla de datos para Enero 27, 2019
Hora Temperatura Punto de rocio Presión Viento Velocidad viento Racha viento Humedad Intensidad lluvia(por hora) Nubes
00:04 61.9 °F /  16.6 °C 58.8 °F /  14.9 °C 30.1in /  1020.3hPa ESE 1.1mph /  1.8km/h 3mph /  4.8km/h 90% 0in /  0.0mm
00:09 61.9 °F /  16.6 °C 58.8 °F /  14.9 °C 30.1in /  1020.3hPa ESE 1.4mph /  2.2km/h 3mph /  4.8km/h 90% 0in /  0.0mm
00:14 61.7 °F /  16.5 °C 58.6 °F /  14.8 °C 30.1in /  1020.3hPa ESE 0.4mph /  0.6km/h 4.3mph /  6.9km/h 90% 0in /  0.0mm
00:19 61.5 °F /  16.4 °C 58.3 °F /  14.6 °C 30.1in /  1020.3hPa Calm   5mph /  8km/h 89.3% 0in /  0.0mm
00:24 61.5 °F /  16.4 °C 58.1 °F /  14.5 °C 30.1in /  1020.3hPa SSO 1.5mph /  2.4km/h 5.9mph /  9.5km/h 88.6% 0in /  0.0mm
00:29 61.5 °F /  16.4 °C 57.9 °F /  14.4 °C 30.1in /  1020.3hPa Sur 2mph /  3.2km/h 6.9mph /  11.1km/h 87.4% 0in /  0.0mm
00:34 61.7 °F /  16.5 °C 57.7 °F /  14.3 °C 30.1in /  1020.3hPa SSE 3.2mph /  5.1km/h 7mph /  11.3km/h 86.8% 0in /  0.0mm
00:39 61.7 °F /  16.5 °C 57.6 °F /  14.2 °C 30.1in /  1020.5hPa SE 3.6mph /  5.8km/h 5mph /  8km/h 86% 0in /  0.0mm
00:44 61.5 °F /  16.4 °C 57.4 °F /  14.1 °C 30.1in /  1020.5hPa SSE 2.7mph /  4.4km/h 5mph /  8km/h 86% 0in /  0.0mm
00:49 61.3 °F /  16.3 °C 57.2 °F /  14 °C 30.1in /  1020.5hPa SSE 2.4mph /  3.9km/h 5.2mph /  8.4km/h 86% 0in /  0.0mm
00:54 61.3 °F /  16.3 °C 57.2 °F /  14 °C 30.1in /  1020.5hPa SSE 2.7mph /  4.4km/h 5.2mph /  8.4km/h 86.6% 0in /  0.0mm
00:59 61.2 °F /  16.2 °C 57.4 °F /  14.1 °C 30.1in /  1020.4hPa SE 2.9mph /  4.7km/h 5mph /  8km/h 87% 0in /  0.0mm
01:04 61 °F /  16.1 °C 57.2 °F /  14 °C 30.1in /  1020.4hPa SE 2.9mph /  4.7km/h 5mph /  8km/h 87% 0in /  0.0mm
01:09 61 °F /  16.1 °C 57 °F /  13.9 °C 30.1in /  1020.4hPa SSE 2.9mph /  4.6km/h 5mph /  8km/h 87% 0in /  0.0mm
01:14 60.6 °F /  15.9 °C 56.8 °F /  13.8 °C 30.1in /  1020.3hPa SSE 2.5mph /  4.1km/h 5mph /  8km/h 87% 0in /  0.0mm
01:19 60.6 °F /  15.9 °C 56.8 °F /  13.8 °C 30.1in /  1020.3hPa SSE 2.4mph /  3.9km/h 3.5mph /  5.6km/h 87.6% 0in /  0.0mm
01:24 60.6 °F /  15.9 °C 57 °F /  13.9 °C 30.1in /  1020.4hPa SSE 1.7mph /  2.7km/h 3.6mph /  5.8km/h 88% 0in /  0.0mm
01:29 60.6 °F /  15.9 °C 57 °F /  13.9 °C 30.1in /  1020.4hPa SSE 1.4mph /  2.2km/h 4mph /  6.4km/h 88% 0in /  0.0mm
01:34 60.6 °F /  15.9 °C 57 °F /  13.9 °C 30.1in /  1020.4hPa SSE 0.4mph /  0.6km/h 2.3mph /  3.7km/h 88% 0in /  0.0mm
01:39 60.4 °F /  15.8 °C 56.8 °F /  13.8 °C 30.1in /  1020.4hPa Calm   2mph /  3.2km/h 88% 0in /  0.0mm
01:44 60.4 °F /  15.8 °C 56.8 °F /  13.8 °C 30.1in /  1020.4hPa Calm   2.9mph /  4.7km/h 88% 0in /  0.0mm
01:49 60.3 °F /  15.7 °C 56.7 °F /  13.7 °C 30.1in /  1020.4hPa Calm   3mph /  4.8km/h 88% 0in /  0.0mm
01:54 60.3 °F /  15.7 °C 56.7 °F /  13.7 °C 30.1in /  1020.5hPa SSE 1mph /  1.6km/h 2.4mph /  3.9km/h 88.2% 0in /  0.0mm
01:59 60.1 °F /  15.6 °C 56.7 °F /  13.7 °C 30.1in /  1020.5hPa SSE 1.4mph /  2.2km/h 2.9mph /  4.7km/h 89% 0in /  0.0mm
02:04 59.9 °F /  15.5 °C 56.5 °F /  13.6 °C 30.1in /  1020.5hPa SE 1.4mph /  2.2km/h 3.5mph /  5.6km/h 89% 0in /  0.0mm
02:09 59.7 °F /  15.4 °C 56.5 °F /  13.6 °C 30.1in /  1020.5hPa NE 1.4mph /  2.2km/h 3mph /  4.8km/h 89% 0in /  0.0mm
02:14 59.5 °F /  15.3 °C 56.5 °F /  13.6 °C 30.1in /  1020.5hPa NE 1.4mph /  2.2km/h 2mph /  3.2km/h 89.4% 0in /  0.0mm
02:19 59.5 °F /  15.3 °C 56.7 °F /  13.7 °C 30.1in /  1020.5hPa NE 1.4mph /  2.2km/h 2.3mph /  3.7km/h 90% 0in /  0.0mm
02:24 59.5 °F /  15.3 °C 56.7 °F /  13.7 °C 30.1in /  1020.5hPa NE 0.4mph /  0.6km/h 2.9mph /  4.7km/h 90% 0in /  0.0mm
02:29 59.5 °F /  15.3 °C 56.7 °F /  13.7 °C 30.1in /  1020.4hPa Calm   3mph /  4.8km/h 90% 0in /  0.0mm
02:34 59.5 °F /  15.3 °C 56.7 °F /  13.7 °C 30.1in /  1020.4hPa Calm   2.9mph /  4.7km/h 90% 0in /  0.0mm
02:39 59.5 °F /  15.3 °C 56.5 °F /  13.6 °C 30.1in /  1020.5hPa Calm   3mph /  4.8km/h 90% 0in /  0.0mm
02:44 59.4 °F /  15.2 °C 56.5 °F /  13.6 °C 30.1in /  1020.5hPa ENE 1.1mph /  1.7km/h 3.5mph /  5.6km/h 90% 0in /  0.0mm
02:49 59.4 °F /  15.2 °C 56.5 °F /  13.6 °C 30.1in /  1020.5hPa Este 1.4mph /  2.2km/h 3.5mph /  5.6km/h 90% 0in /  0.0mm
02:54 59.2 °F /  15.1 °C 56.3 °F /  13.5 °C 30.1in /  1020.5hPa SE 1.9mph /  3km/h 4.6mph /  7.4km/h 90% 0in /  0.0mm
02:59 59 °F /  15 °C 56.1 °F /  13.4 °C 30.1in /  1020.4hPa SE 2mph /  3.2km/h 5mph /  8km/h 90% 0in /  0.0mm
02:04 58.8 °F /  14.9 °C 55.9 °F /  13.3 °C 30.1in /  1020.4hPa SSE 2.3mph /  3.7km/h 5mph /  8km/h 90% 0in /  0.0mm
02:09 58.8 °F /  14.9 °C 55.9 °F /  13.3 °C 30.1in /  1020.5hPa SSE 2.4mph /  3.9km/h 5mph /  8km/h 90% 0in /  0.0mm
02:14 58.8 °F /  14.9 °C 55.9 °F /  13.3 °C 30.1in /  1020.5hPa SSE 1.7mph /  2.7km/h 2mph /  3.2km/h 90% 0in /  0.0mm
02:19 58.8 °F /  14.9 °C 55.9 °F /  13.3 °C 30.1in /  1020.5hPa SSE 1.4mph /  2.2km/h   90% 0in /  0.0mm
02:24 58.8 °F /  14.9 °C 55.9 °F /  13.3 °C 30.1in /  1020.5hPa SSE 0.4mph /  0.6km/h 5.2mph /  8.4km/h 90% 0in /  0.0mm
02:29 58.8 °F /  14.9 °C 55.9 °F /  13.3 °C 30.1in /  1020.4hPa Calm   5mph /  8km/h 90% 0in /  0.0mm
02:34 59 °F /  15 °C 56.1 °F /  13.4 °C 30.1in /  1020.4hPa SSO 2.1mph /  3.4km/h 5.2mph /  8.4km/h 90% 0in /  0.0mm
02:39 59 °F /  15 °C 56.1 °F /  13.4 °C 30.1in /  1020.4hPa SO 2.9mph /  4.7km/h 5mph /  8km/h 90% 0in /  0.0mm
02:44 59 °F /  15 °C 56.1 °F /  13.4 °C 30.1in /  1020.3hPa SSO 2.9mph /  4.7km/h 5mph /  8km/h 90% 0in /  0.0mm
02:49 59 °F /  15 °C 56.1 °F /  13.4 °C 30.1in /  1020.3hPa SO 2.9mph /  4.7km/h 3mph /  4.8km/h 90% 0in /  0.0mm
02:54 59 °F /  15 °C 55.9 °F /  13.3 °C 30.1in /  1020.3hPa SO 1.7mph /  2.8km/h 3mph /  4.8km/h 90% 0in /  0.0mm
02:59 58.8 °F /  14.9 °C 55.9 °F /  13.3 °C 30.1in /  1020.3hPa OSO 1.4mph /  2.2km/h 2.4mph /  3.9km/h 90% 0in /  0.0mm
03:04 58.6 °F /  14.8 °C 55.6 °F /  13.1 °C 30.1in /  1020.3hPa OSO 0.3mph /  0.5km/h 2mph /  3.2km/h 89.7% 0in /  0.0mm
03:09 58.5 °F /  14.7 °C 55.6 °F /  13.1 °C 30.1in /  1020.3hPa Calm   1.4mph /  2.3km/h 90% 0in /  0.0mm
03:14 58.5 °F /  14.7 °C 55.8 °F /  13.2 °C 30.1in /  1020.2hPa Calm   1mph /  1.6km/h 90.6% 0in /  0.0mm
03:19 58.6 °F /  14.8 °C 55.9 °F /  13.3 °C 30.1in /  1020.2hPa Calm   2.9mph /  4.7km/h 91% 0in /  0.0mm
03:24 58.6 °F /  14.8 °C 55.9 °F /  13.3 °C 30.1in /  1020.2hPa Calm   3.5mph /  5.6km/h 91% 0in /  0.0mm
03:29 58.6 °F /  14.8 °C 55.9 °F /  13.3 °C 30.1in /  1020.2hPa Calm   4.6mph /  7.4km/h 91% 0in /  0.0mm
03:34 58.6 °F /  14.8 °C 56.1 °F /  13.4 °C 30.1in /  1020.2hPa SSE 1.4mph /  2.3km/h 5mph /  8km/h 91% 0in /  0.0mm
03:39 58.8 °F /  14.9 °C 56.1 °F /  13.4 °C 30.1in /  1020.2hPa Sur 2mph /  3.2km/h 5mph /  8km/h 91% 0in /  0.0mm
03:44 59 °F /  15 °C 56.3 °F /  13.5 °C 30.1in /  1020.0hPa Sur 2.3mph /  3.7km/h 5mph /  8km/h 91% 0in /  0.0mm
03:49 59 °F /  15 °C 56.5 °F /  13.6 °C 30.1in /  1020.0hPa Sur 2.4mph /  3.9km/h 4.3mph /  6.9km/h 91% 0in /  0.0mm
03:54 59.2 °F /  15.1 °C 56.7 °F /  13.7 °C 30.1in /  1020.0hPa Sur 2.1mph /  3.4km/h 5mph /  8km/h 91% 0in /  0.0mm
03:59 59.2 °F /  15.1 °C 56.7 °F /  13.7 °C 30.1in /  1019.8hPa Sur 2mph /  3.2km/h 5mph /  8km/h 91% 0in /  0.0mm
04:04 59.2 °F /  15.1 °C 56.7 °F /  13.7 °C 30.1in /  1019.8hPa Sur 2.7mph /  4.3km/h 5mph /  8km/h 91% 0in /  0.0mm
04:09 59.2 °F /  15.1 °C 56.7 °F /  13.7 °C 30.1in /  1019.8hPa Sur 2.9mph /  4.7km/h 5mph /  8km/h 91% 0in /  0.0mm
04:14 59.2 °F /  15.1 °C 56.7 °F /  13.7 °C 30.1in /  1019.7hPa SSO 2.5mph /  4.1km/h 4mph /  6.4km/h 91% 0in /  0.0mm
04:19 59.2 °F /  15.1 °C 56.7 °F /  13.7 °C 30.1in /  1019.7hPa SSO 2.4mph /  3.9km/h 3mph /  4.8km/h 91% 0in /  0.0mm
04:24 59.2 °F /  15.1 °C 56.3 °F /  13.5 °C 30.1in /  1019.7hPa SSO 1.7mph /  2.7km/h 2.4mph /  3.9km/h 90.3% 0in /  0.0mm
04:29 59.2 °F /  15.1 °C 56.1 °F /  13.4 °C 30.1in /  1019.6hPa SSO 1.4mph /  2.2km/h 3.5mph /  5.6km/h 90% 0in /  0.0mm
04:34 59 °F /  15 °C 56.1 °F /  13.4 °C 30.1in /  1019.6hPa SSO 1.4mph /  2.2km/h 3.6mph /  5.8km/h 90% 0in /  0.0mm
04:39 58.8 °F /  14.9 °C 55.9 °F /  13.3 °C 30.1in /  1019.7hPa SSO 1.4mph /  2.2km/h 4mph /  6.4km/h 90% 0in /  0.0mm
04:44 58.8 °F /  14.9 °C 55.9 °F /  13.3 °C 30.1in /  1019.7hPa SSO 1.7mph /  2.7km/h 3mph /  4.8km/h 90% 0in /  0.0mm
04:49 58.8 °F /  14.9 °C 55.9 °F /  13.3 °C 30.1in /  1019.7hPa SSO 1.8mph /  2.9km/h 2.4mph /  3.9km/h 90% 0in /  0.0mm
04:54 58.8 °F /  14.9 °C 55.9 °F /  13.3 °C 30.1in /  1019.7hPa SSO 0.5mph /  0.8km/h 3.6mph /  5.8km/h 90% 0in /  0.0mm
04:59 58.8 °F /  14.9 °C 55.9 °F /  13.3 °C 30.1in /  1019.7hPa Calm   4.3mph /  6.9km/h 90% 0in /  0.0mm
05:04 58.8 °F /  14.9 °C 55.9 °F /  13.3 °C 30.1in /  1019.7hPa SO 1.9mph /  3km/h 5mph /  8km/h 90% 0in /  0.0mm
05:09 58.6 °F /  14.8 °C 55.8 °F /  13.2 °C 30.1in /  1019.8hPa SO 2.4mph /  3.9km/h 5mph /  8km/h 90% 0in /  0.0mm
05:14 58.6 °F /  14.8 °C 55.8 °F /  13.2 °C 30.1in /  1019.8hPa SO 2.7mph /  4.4km/h 5mph /  8km/h 90% 0in /  0.0mm
05:19 58.6 °F /  14.8 °C 55.8 °F /  13.2 °C 30.1in /  1019.8hPa SO 2.9mph /  4.7km/h 5mph /  8km/h 90% 0in /  0.0mm
05:24 58.5 °F /  14.7 °C 55.6 °F /  13.1 °C 30.1in /  1019.8hPa OSO 2.5mph /  4.1km/h 5.2mph /  8.4km/h 90% 0in /  0.0mm
05:29 58.5 °F /  14.7 °C 55.6 °F /  13.1 °C 30.1in /  1019.8hPa OSO 2.4mph /  3.9km/h 5mph /  8km/h 90% 0in /  0.0mm
05:34 58.5 °F /  14.7 °C 55.4 °F /  13 °C 30.1in /  1019.8hPa OSO 2.7mph /  4.4km/h 5mph /  8km/h 90% 0in /  0.0mm
05:39 58.3 °F /  14.6 °C 55.4 °F /  13 °C 30.1in /  1019.9hPa OSO 2.9mph /  4.7km/h 5.2mph /  8.4km/h 90% 0in /  0.0mm
05:44 58.3 °F /  14.6 °C 55.4 °F /  13 °C 30.1in /  1019.9hPa SO 2.9mph /  4.7km/h 5.8mph /  9.3km/h 90% 0in /  0.0mm
05:49 58.3 °F /  14.6 °C 55.4 °F /  13 °C 30.1in /  1019.9hPa SO 2.9mph /  4.7km/h 6mph /  9.7km/h 90% 0in /  0.0mm
05:54 58.3 °F /  14.6 °C 55.6 °F /  13.1 °C 30.1in /  1020.0hPa SO 3mph /  4.9km/h 6mph /  9.7km/h 90.9% 0in /  0.0mm
05:59 58.3 °F /  14.6 °C 55.6 °F /  13.1 °C 30.1in /  1020.0hPa OSO 3.1mph /  5km/h 5mph /  8km/h 91% 0in /  0.0mm
06:04 58.3 °F /  14.6 °C 55.6 °F /  13.1 °C 30.1in /  1020.0hPa OSO 2.9mph /  4.7km/h 5mph /  8km/h 91% 0in /  0.0mm
06:09 58.1 °F /  14.5 °C 55.6 °F /  13.1 °C 30.1in /  1020.2hPa SO 2.9mph /  4.7km/h 5.2mph /  8.4km/h 91% 0in /  0.0mm
06:14 58.3 °F /  14.6 °C 55.6 °F /  13.1 °C 30.1in /  1020.2hPa SSO 2.9mph /  4.7km/h 5.2mph /  8.4km/h 91% 0in /  0.0mm
06:19 58.3 °F /  14.6 °C 55.8 °F /  13.2 °C 30.1in /  1020.2hPa SSO 2.9mph /  4.7km/h 5.2mph /  8.4km/h 91% 0in /  0.0mm
06:24 58.3 °F /  14.6 °C 55.8 °F /  13.2 °C 30.1in /  1020.2hPa SSO 3.4mph /  5.5km/h 5.4mph /  8.7km/h 91% 0in /  0.0mm
06:29 58.5 °F /  14.7 °C 55.8 °F /  13.2 °C 30.1in /  1020.2hPa Sur 3.6mph /  5.8km/h 6mph /  9.7km/h 91% 0in /  0.0mm
06:34 58.5 °F /  14.7 °C 55.8 °F /  13.2 °C 30.1in /  1020.2hPa SSE 3.6mph /  5.8km/h 6mph /  9.7km/h 90.6% 0in /  0.0mm
06:39 58.5 °F /  14.7 °C 55.4 °F /  13 °C 30.1in /  1020.2hPa SSE 3.6mph /  5.8km/h 6mph /  9.7km/h 90% 0in /  0.0mm
06:44 58.3 °F /  14.6 °C 55.4 °F /  13 °C 30.1in /  1020.1hPa Sur 3.2mph /  5.2km/h 5mph /  8km/h 90% 0in /  0.0mm
06:49 58.3 °F /  14.6 °C 55.4 °F /  13 °C 30.1in /  1020.1hPa SSE 3.1mph /  5km/h 5mph /  8km/h 90% 0in /  0.0mm
06:54 58.1 °F /  14.5 °C 55.2 °F /  12.9 °C 30.1in /  1020.1hPa SSE 2.9mph /  4.7km/h 5mph /  8km/h 90% 0in /  0.0mm
06:59 57.9 °F /  14.4 °C 55 °F /  12.8 °C 30.1in /  1020.1hPa SE 2.9mph /  4.7km/h 5mph /  8km/h 90% 0in /  0.0mm
07:04 57.7 °F /  14.3 °C 54.9 °F /  12.7 °C 30.1in /  1020.1hPa SSE 2.9mph /  4.7km/h 5mph /  8km/h 90.3% 0in /  0.0mm
07:09 57.6 °F /  14.2 °C 55 °F /  12.8 °C 30.1in /  1020.1hPa Sur 2.9mph /  4.6km/h 5mph /  8km/h 91% 0in /  0.0mm
07:14 57.6 °F /  14.2 °C 55 °F /  12.8 °C 30.1in /  1020.1hPa Sur 2.5mph /  4.1km/h 5mph /  8km/h 91% 0in /  0.0mm
07:19 57.6 °F /  14.2 °C 55 °F /  12.8 °C 30.1in /  1020.1hPa SO 2.4mph /  3.9km/h 5mph /  8km/h 91% 0in /  0.0mm
07:24 57.6 °F /  14.2 °C 55 °F /  12.8 °C 30.1in /  1020.3hPa SO 2.4mph /  3.9km/h 5mph /  8km/h 91% 0in /  0.0mm
07:29 57.6 °F /  14.2 °C 55 °F /  12.8 °C 30.1in /  1020.3hPa OSO 2.4mph /  3.9km/h 5mph /  8km/h 91% 0in /  0.0mm
07:34 57.6 °F /  14.2 °C 55 °F /  12.8 °C 30.1in /  1020.3hPa OSO 2.1mph /  3.4km/h 4mph /  6.4km/h 91% 0in /  0.0mm
07:39 57.6 °F /  14.2 °C 55 °F /  12.8 °C 30.1in /  1020.4hPa OSO 2mph /  3.2km/h 4mph /  6.4km/h 91% 0in /  0.0mm
07:44 57.6 °F /  14.2 °C 55 °F /  12.8 °C 30.1in /  1020.4hPa OSO 2mph /  3.2km/h 5.9mph /  9.5km/h 91% 0in /  0.0mm
07:49 57.7 °F /  14.3 °C 55 °F /  12.8 °C 30.1in /  1020.4hPa OSO 2mph /  3.2km/h 6mph /  9.7km/h 91% 0in /  0.0mm
07:54 57.7 °F /  14.3 °C 55 °F /  12.8 °C 30.1in /  1020.8hPa OSO 2.3mph /  3.7km/h 5.4mph /  8.7km/h 91% 0in /  0.0mm
07:59 57.6 °F /  14.2 °C 55 °F /  12.8 °C 30.1in /  1020.8hPa Oeste 2.4mph /  3.9km/h 6.9mph /  11.1km/h 91% 0in /  0.0mm
08:04 57.6 °F /  14.2 °C 55 °F /  12.8 °C 30.1in /  1020.8hPa OSO 3.4mph /  5.4km/h 7mph /  11.3km/h 91% 0in /  0.0mm
08:09 57.6 °F /  14.2 °C 55 °F /  12.8 °C 30.1in /  1020.8hPa SO 3.6mph /  5.8km/h 5.2mph /  8.4km/h 91% 0in /  0.0mm
08:14 57.6 °F /  14.2 °C 55 °F /  12.8 °C 30.1in /  1020.8hPa OSO 3.2mph /  5.2km/h 5.8mph /  9.3km/h 91% 0in /  0.0mm
08:19 57.7 °F /  14.3 °C 55 °F /  12.8 °C 30.1in /  1020.8hPa OSO 3.1mph /  5km/h 6mph /  9.7km/h 91% 0in /  0.0mm
08:24 57.7 °F /  14.3 °C 55 °F /  12.8 °C 30.2in /  1020.9hPa OSO 3mph /  4.8km/h 5mph /  8km/h 91% 0in /  0.0mm
08:29 57.9 °F /  14.4 °C 55.2 °F /  12.9 °C 30.2in /  1020.9hPa OSO 2.9mph /  4.7km/h 5mph /  8km/h 91% 0in /  0.0mm
08:34 57.9 °F /  14.4 °C 55.4 °F /  13 °C 30.2in /  1020.9hPa SSE 1.8mph /  2.9km/h 5.2mph /  8.4km/h 91% 0in /  0.0mm
08:39 58.1 °F /  14.5 °C 55.4 °F /  13 °C 30.2in /  1020.9hPa Sur 1.4mph /  2.2km/h 5mph /  8km/h 91% 0in /  0.0mm
08:44 58.1 °F /  14.5 °C 55.6 °F /  13.1 °C 30.2in /  1020.9hPa SSE 2.1mph /  3.4km/h 5mph /  8km/h 91% 0in /  0.0mm
08:49 58.1 °F /  14.5 °C 55.6 °F /  13.1 °C 30.2in /  1020.9hPa Sur 2.4mph /  3.9km/h 5.2mph /  8.4km/h 91% 0in /  0.0mm
08:54 58.3 °F /  14.6 °C 55.6 °F /  13.1 °C 30.2in /  1021.1hPa Sur 2.8mph /  4.5km/h 5.2mph /  8.4km/h 91% 0in /  0.0mm
08:59 58.3 °F /  14.6 °C 55.8 °F /  13.2 °C 30.2in /  1021.1hPa Sur 2.9mph /  4.7km/h 6.2mph /  10km/h 91% 0in /  0.0mm
09:04 58.5 °F /  14.7 °C 55.8 °F /  13.2 °C 30.2in /  1021.1hPa Sur 3.4mph /  5.5km/h 6.2mph /  10km/h 91% 0in /  0.0mm
09:09 58.5 °F /  14.7 °C 55.6 °F /  13.1 °C 30.2in /  1021.1hPa SSO 3.6mph /  5.8km/h 6.9mph /  11.1km/h 90.3% 0in /  0.0mm
09:14 58.6 °F /  14.8 °C 55.8 °F /  13.2 °C 30.2in /  1021.1hPa SO 4.1mph /  6.6km/h 7.4mph /  11.9km/h 90% 0in /  0.0mm
09:19 59 °F /  15 °C 56.1 °F /  13.4 °C 30.2in /  1021.1hPa SO 4.3mph /  6.9km/h 7mph /  11.3km/h 90% 0in /  0.0mm
09:24 59.4 °F /  15.2 °C 56.1 °F /  13.4 °C 30.2in /  1021.2hPa SSO 4.1mph /  6.6km/h 6mph /  9.7km/h 89% 0in /  0.0mm
09:29 59.7 °F /  15.4 °C 56.3 °F /  13.5 °C 30.2in /  1021.2hPa SO 4mph /  6.5km/h 6mph /  9.7km/h 88.3% 0in /  0.0mm
09:34 60.1 °F /  15.6 °C 56.5 °F /  13.6 °C 30.2in /  1021.2hPa OSO 3.7mph /  6km/h 6mph /  9.7km/h 87.8% 0in /  0.0mm
09:39 60.3 °F /  15.7 °C 56.5 °F /  13.6 °C 30.2in /  1021.2hPa Oeste 3.6mph /  5.8km/h 6mph /  9.7km/h 87% 0in /  0.0mm
09:44 60.4 °F /  15.8 °C 56.7 °F /  13.7 °C 30.2in /  1021.2hPa OSO 3.2mph /  5.2km/h 6.9mph /  11.1km/h 87% 0in /  0.0mm
09:49 60.8 °F /  16 °C 57 °F /  13.9 °C 30.2in /  1021.2hPa SO 3.1mph /  5km/h 7mph /  11.3km/h 87% 0in /  0.0mm
09:54 61.2 °F /  16.2 °C 56.8 °F /  13.8 °C 30.2in /  1021.3hPa OSO 3.5mph /  5.6km/h 6.4mph /  10.3km/h 86.2% 0in /  0.0mm
09:59 61.3 °F /  16.3 °C 57 °F /  13.9 °C 30.2in /  1021.3hPa SO 3.6mph /  5.8km/h 7.4mph /  11.9km/h 85.9% 0in /  0.0mm
10:04 61.5 °F /  16.4 °C 57 °F /  13.9 °C 30.2in /  1021.3hPa SO 3.9mph /  6.3km/h 7mph /  11.3km/h 85% 0in /  0.0mm
10:09 61.9 °F /  16.6 °C 57.2 °F /  14 °C 30.2in /  1021.3hPa SO 4mph /  6.5km/h 7mph /  11.3km/h 85% 0in /  0.0mm
10:14 62.1 °F /  16.7 °C 57.4 °F /  14.1 °C 30.2in /  1021.3hPa SSO 4mph /  6.5km/h 7.4mph /  11.9km/h 85% 0in /  0.0mm
10:19 62.2 °F /  16.8 °C 57.7 °F /  14.3 °C 30.2in /  1021.3hPa SO 4mph /  6.5km/h 8.1mph /  13km/h 85% 0in /  0.0mm
10:24 62.4 °F /  16.9 °C 57.7 °F /  14.3 °C 30.2in /  1021.4hPa Sur 4.5mph /  7.3km/h 8mph /  12.9km/h 84.9% 0in /  0.0mm
10:29 62.8 °F /  17.1 °C 57.7 °F /  14.3 °C 30.2in /  1021.4hPa SO 4.7mph /  7.6km/h 6.9mph /  11.1km/h 83.6% 0in /  0.0mm
10:34 62.8 °F /  17.1 °C 57.6 °F /  14.2 °C 30.2in /  1021.4hPa Oeste 3.9mph /  6.3km/h 7mph /  11.3km/h 83% 0in /  0.0mm
10:39 63 °F /  17.2 °C 57.7 °F /  14.3 °C 30.2in /  1021.4hPa SSO 3.6mph /  5.8km/h 6mph /  9.7km/h 83% 0in /  0.0mm
10:44 63 °F /  17.2 °C 57.7 °F /  14.3 °C 30.2in /  1021.4hPa SO 3.2mph /  5.2km/h 6mph /  9.7km/h 83% 0in /  0.0mm
10:49 63.1 °F /  17.3 °C 57.7 °F /  14.3 °C 30.2in /  1021.4hPa SSO 3.1mph /  5km/h 5.9mph /  9.5km/h 82.7% 0in /  0.0mm
10:54 63.3 °F /  17.4 °C 57.6 °F /  14.2 °C 30.2in /  1021.4hPa SO 3.1mph /  5km/h 6mph /  9.7km/h 81.6% 0in /  0.0mm
10:59 63.5 °F /  17.5 °C 57.7 °F /  14.3 °C 30.2in /  1021.3hPa Sur 3.1mph /  5km/h 6.9mph /  11.1km/h 81.5% 0in /  0.0mm
11:04 64 °F /  17.8 °C 57.9 °F /  14.4 °C 30.2in /  1021.3hPa SSO 2.9mph /  4.7km/h 7mph /  11.3km/h 80.3% 0in /  0.0mm
11:09 64.6 °F /  18.1 °C 58.1 °F /  14.5 °C 30.2in /  1021.3hPa SSO 2.9mph /  4.6km/h 7mph /  11.3km/h 79.6% 0in /  0.0mm
11:14 64.8 °F /  18.2 °C 58.1 °F /  14.5 °C 30.2in /  1021.1hPa SSO 2.9mph /  4.7km/h 5mph /  8km/h 79.3% 0in /  0.0mm
11:19 64.9 °F /  18.3 °C 58.1 °F /  14.5 °C 30.2in /  1021.1hPa SO 2.9mph /  4.6km/h 5mph /  8km/h 78.6% 0in /  0.0mm
11:24 65.3 °F /  18.5 °C 58.3 °F /  14.6 °C 30.2in /  1021.1hPa Sur 2.2mph /  3.6km/h 5.9mph /  9.5km/h 78.2% 0in /  0.0mm
11:29 65.5 °F /  18.6 °C 58.1 °F /  14.5 °C 30.2in /  1021.1hPa ONO 2mph /  3.2km/h 6mph /  9.7km/h 77% 0in /  0.0mm
11:34 65.8 °F /  18.8 °C 58.3 °F /  14.6 °C 30.2in /  1021.1hPa SO 2.3mph /  3.7km/h 5.9mph /  9.5km/h 76.6% 0in /  0.0mm
11:39 66.2 °F /  19 °C 58.3 °F /  14.6 °C 30.2in /  1021.1hPa SO 2.4mph /  3.9km/h 6mph /  9.7km/h 75.5% 0in /  0.0mm
11:44 66.4 °F /  19.1 °C 58.3 °F /  14.6 °C 30.2in /  1021.0hPa Oeste 3.3mph /  5.3km/h 5.9mph /  9.5km/h 75% 0in /  0.0mm
11:49 66.6 °F /  19.2 °C 58.5 °F /  14.7 °C 30.2in /  1021.0hPa OSO 3.6mph /  5.8km/h 6mph /  9.7km/h 74.9% 0in /  0.0mm
11:54 66.9 °F /  19.4 °C 58.5 °F /  14.7 °C 30.2in /  1021.0hPa OSO 2.4mph /  3.9km/h 6.2mph /  10km/h 74% 0in /  0.0mm
11:59 66.9 °F /  19.4 °C 58.5 °F /  14.7 °C 30.2in /  1020.9hPa OSO 2mph /  3.2km/h 6mph /  9.7km/h 74% 0in /  0.0mm
12:04 67.3 °F /  19.6 °C 58.6 °F /  14.8 °C 30.2in /  1020.9hPa Oeste 2.7mph /  4.4km/h 5mph /  8km/h 73.7% 0in /  0.0mm
12:09 67.6 °F /  19.8 °C 58.5 °F /  14.7 °C 30.2in /  1020.9hPa Oeste 2.9mph /  4.6km/h 5.2mph /  8.4km/h 72.3% 0in /  0.0mm
12:14 67.6 °F /  19.8 °C 58.6 °F /  14.8 °C 30.1in /  1020.8hPa ONO 2.9mph /  4.7km/h 5mph /  8km/h 72.9% 0in /  0.0mm
12:19 68 °F /  20 °C 59 °F /  15 °C 30.1in /  1020.8hPa NE 2.9mph /  4.7km/h 5mph /  8km/h 73% 0in /  0.0mm
12:24 68.7 °F /  20.4 °C 59.4 °F /  15.2 °C 30.1in /  1020.8hPa ENE 2.1mph /  3.3km/h 5.2mph /  8.4km/h 72.1% 0in /  0.0mm
12:29 69.3 °F /  20.7 °C 59.4 °F /  15.2 °C 30.1in /  1020.5hPa NNE 1.8mph /  2.9km/h 5mph /  8km/h 70.7% 0in /  0.0mm
12:34 69.4 °F /  20.8 °C 59.2 °F /  15.1 °C 30.1in /  1020.5hPa Oeste 2.6mph /  4.2km/h 5.2mph /  8.4km/h 70% 0in /  0.0mm
12:39 69.4 °F /  20.8 °C 59 °F /  15 °C 30.1in /  1020.5hPa OSO 2.9mph /  4.7km/h 5.9mph /  9.5km/h 69.7% 0in /  0.0mm
12:44 69.4 °F /  20.8 °C 59.2 °F /  15.1 °C 30.1in /  1020.5hPa Oeste 2.5mph /  4.1km/h 6.9mph /  11.1km/h 70% 0in /  0.0mm
12:49 69.3 °F /  20.7 °C 59.2 °F /  15.1 °C 30.1in /  1020.5hPa OSO 2.4mph /  3.9km/h 7mph /  11.3km/h 70% 0in /  0.0mm
12:54 69.4 °F /  20.8 °C 59.2 °F /  15.1 °C 30.1in /  1020.5hPa SSE 2.9mph /  4.7km/h 6mph /  9.7km/h 70% 0in /  0.0mm
12:59 69.6 °F /  20.9 °C 59.2 °F /  15.1 °C 30.1in /  1020.1hPa Oeste 3.1mph /  5km/h 6mph /  9.7km/h 69.4% 0in /  0.0mm
13:04 69.6 °F /  20.9 °C 59.2 °F /  15.1 °C 30.1in /  1020.1hPa NO 2.5mph /  4.1km/h 4.7mph /  7.6km/h 69% 0in /  0.0mm
13:09 69.8 °F /  21 °C 59.2 °F /  15.1 °C 30.1in /  1020.1hPa NNO 2.4mph /  3.9km/h 5mph /  8km/h 69% 0in /  0.0mm
13:14 70.2 °F /  21.2 °C 59.5 °F /  15.3 °C 30.1in /  1020.0hPa NNE 2.8mph /  4.5km/h 5mph /  8km/h 68.8% 0in /  0.0mm
13:19 70.7 °F /  21.5 °C 59.5 °F /  15.3 °C 30.1in /  1020.0hPa ESE 2.9mph /  4.7km/h 5.9mph /  9.5km/h 68% 0in /  0.0mm
13:24 70.9 °F /  21.6 °C 59.5 °F /  15.3 °C 30.1in /  1020.0hPa SSE 2.9mph /  4.7km/h 6.9mph /  11.1km/h 67.2% 0in /  0.0mm
13:29 70.9 °F /  21.6 °C 59.7 °F /  15.4 °C 30.1in /  1019.8hPa ESE 2.9mph /  4.7km/h 8.1mph /  13km/h 68% 0in /  0.0mm
13:34 71.1 °F /  21.7 °C 59.9 °F /  15.5 °C 30.1in /  1019.8hPa Este 3.4mph /  5.5km/h 8mph /  12.9km/h 68% 0in /  0.0mm
13:39 71.1 °F /  21.7 °C 59.9 °F /  15.5 °C 30.1in /  1019.8hPa Sur 3.6mph /  5.8km/h 6mph /  9.7km/h 67.8% 0in /  0.0mm
13:44 71.2 °F /  21.8 °C 59.9 °F /  15.5 °C 30.1in /  1019.6hPa ONO 2.7mph /  4.4km/h 5mph /  8km/h 67.2% 0in /  0.0mm
13:49 71.8 °F /  22.1 °C 60.1 °F /  15.6 °C 30.1in /  1019.6hPa NO 2.4mph /  3.9km/h 4mph /  6.4km/h 66.5% 0in /  0.0mm
13:54 72.1 °F /  22.3 °C 60.1 °F /  15.6 °C 30.1in /  1019.6hPa SSO 1.9mph /  3.1km/h 5.9mph /  9.5km/h 65.7% 0in /  0.0mm
13:59 72.3 °F /  22.4 °C 59.7 °F /  15.4 °C 30.1in /  1019.4hPa Sur 1.8mph /  2.9km/h 6.9mph /  11.1km/h 64.6% 0in /  0.0mm
14:04 72.1 °F /  22.3 °C 59.5 °F /  15.3 °C 30.1in /  1019.4hPa ESE 2.8mph /  4.5km/h 7mph /  11.3km/h 64.1% 0in /  0.0mm
14:09 72 °F /  22.2 °C 59.5 °F /  15.3 °C 30.1in /  1019.4hPa NE 3.1mph /  5km/h 6.9mph /  11.1km/h 65.1% 0in /  0.0mm
14:14 71.4 °F /  21.9 °C 59.4 °F /  15.2 °C 30.1in /  1019.1hPa NE 3.5mph /  5.6km/h 7mph /  11.3km/h 65.7% 0in /  0.0mm
14:19 71.2 °F /  21.8 °C 59.4 °F /  15.2 °C 30.1in /  1019.1hPa Este 3.6mph /  5.8km/h 7mph /  11.3km/h 66% 0in /  0.0mm
14:24 71.2 °F /  21.8 °C 59.5 °F /  15.3 °C 30.1in /  1019.1hPa Este 3.2mph /  5.2km/h 5.8mph /  9.3km/h 66.1% 0in /  0.0mm
14:29 71.4 °F /  21.9 °C 59.5 °F /  15.3 °C 30.1in /  1019.0hPa North 3.1mph /  5km/h 6mph /  9.7km/h 66% 0in /  0.0mm
14:34 71.8 °F /  22.1 °C 59.7 °F /  15.4 °C 30.1in /  1019.0hPa NE 3mph /  4.8km/h 6.9mph /  11.1km/h 65.8% 0in /  0.0mm
14:39 71.8 °F /  22.1 °C 59.4 °F /  15.2 °C 30.1in /  1019.0hPa NE 2.9mph /  4.7km/h 7.4mph /  11.9km/h 65% 0in /  0.0mm
14:44 71.4 °F /  21.9 °C 59.4 °F /  15.2 °C 30.1in /  1018.8hPa NNE 3.4mph /  5.5km/h 7mph /  11.3km/h 65.8% 0in /  0.0mm
14:49 71.4 °F /  21.9 °C 59.7 °F /  15.4 °C 30.1in /  1018.8hPa NNE 3.6mph /  5.8km/h 7mph /  11.3km/h 66.2% 0in /  0.0mm
14:54 71.8 °F /  22.1 °C 59.7 °F /  15.4 °C 30.1in /  1018.8hPa ENE 3.9mph /  6.3km/h 7mph /  11.3km/h 66% 0in /  0.0mm
14:59 72 °F /  22.2 °C 59.9 °F /  15.5 °C 30.1in /  1018.6hPa Este 4mph /  6.5km/h 9.2mph /  14.8km/h 66% 0in /  0.0mm
15:04 72 °F /  22.2 °C 59.7 °F /  15.4 °C 30.1in /  1018.6hPa Este 4mph /  6.5km/h 9mph /  14.5km/h 65.2% 0in /  0.0mm
15:09 72.1 °F /  22.3 °C 59.4 °F /  15.2 °C 30.1in /  1018.6hPa ENE 4mph /  6.5km/h 8mph /  12.9km/h 64.3% 0in /  0.0mm
15:14 72.3 °F /  22.4 °C 59.5 °F /  15.3 °C 30.1in /  1018.4hPa ENE 4.2mph /  6.8km/h 8.5mph /  13.7km/h 64.1% 0in /  0.0mm
15:19 72.5 °F /  22.5 °C 59.9 °F /  15.5 °C 30.1in /  1018.4hPa NE 4.3mph /  6.9km/h 9mph /  14.5km/h 64.7% 0in /  0.0mm
15:24 72.3 °F /  22.4 °C 59.7 °F /  15.4 °C 30.1in /  1018.4hPa NE 5mph /  8km/h 10.7mph /  17.2km/h 64.5% 0in /  0.0mm
15:29 72.3 °F /  22.4 °C 59.9 °F /  15.5 °C 30.1in /  1018.4hPa NE 5.2mph /  8.4km/h 11mph /  17.7km/h 65% 0in /  0.0mm
15:34 72.1 °F /  22.3 °C 59.9 °F /  15.5 °C 30.1in /  1018.4hPa NE 5.3mph /  8.6km/h 10mph /  16.1km/h 65.1% 0in /  0.0mm
15:39 72.3 °F /  22.4 °C 59.9 °F /  15.5 °C 30.1in /  1018.4hPa NE 5.4mph /  8.7km/h 7.4mph /  11.9km/h 65% 0in /  0.0mm
15:44 72.5 °F /  22.5 °C 59.5 °F /  15.3 °C 30.1in /  1018.3hPa NNE 4.6mph /  7.4km/h 7mph /  11.3km/h 64% 0in /  0.0mm
15:49 72.5 °F /  22.5 °C 59.7 °F /  15.4 °C 30.1in /  1018.3hPa NE 4.3mph /  6.9km/h 8.1mph /  13km/h 64% 0in /  0.0mm
15:54 72.5 °F /  22.5 °C 59.7 °F /  15.4 °C 30.1in /  1018.3hPa NE 4.1mph /  6.6km/h 9.2mph /  14.8km/h 64% 0in /  0.0mm
15:59 72.3 °F /  22.4 °C 59.7 °F /  15.4 °C 30.1in /  1018.3hPa ENE 4mph /  6.5km/h 11.4mph /  18.3km/h 64.4% 0in /  0.0mm
16:04 72.3 °F /  22.4 °C 59.5 °F /  15.3 °C 30.1in /  1018.3hPa NE 4.9mph /  7.9km/h 12mph /  19.3km/h 64% 0in /  0.0mm
16:09 72.3 °F /  22.4 °C 59.7 °F /  15.4 °C 30.1in /  1018.3hPa NNE 5.2mph /  8.4km/h 12mph /  19.3km/h 64.4% 0in /  0.0mm
16:14 72.3 °F /  22.4 °C 59.9 °F /  15.5 °C 30.1in /  1018.2hPa ENE 5.7mph /  9.2km/h 11mph /  17.7km/h 64.9% 0in /  0.0mm
16:19 72.1 °F /  22.3 °C 59.7 °F /  15.4 °C 30.1in /  1018.2hPa ENE 5.9mph /  9.5km/h 11.8mph /  19km/h 64.8% 0in /  0.0mm
16:24 72.1 °F /  22.3 °C 59.4 °F /  15.2 °C 30.1in /  1018.2hPa ESE 5.9mph /  9.5km/h 12mph /  19.3km/h 63.8% 0in /  0.0mm
16:29 72.1 °F /  22.3 °C 59 °F /  15 °C 30.1in /  1018.2hPa ESE 5.9mph /  9.5km/h 10mph /  16.1km/h 63% 0in /  0.0mm
16:34 72.1 °F /  22.3 °C 59 °F /  15 °C 30.1in /  1018.2hPa ESE 6.2mph /  9.9km/h 10mph /  16.1km/h 63.2% 0in /  0.0mm
16:39 72.1 °F /  22.3 °C 59.4 °F /  15.2 °C 30.1in /  1018.2hPa ESE 6.2mph /  10km/h 8.1mph /  13km/h 64% 0in /  0.0mm
16:44 72 °F /  22.2 °C 59.2 °F /  15.1 °C 30.1in /  1018.1hPa ESE 5.1mph /  8.2km/h 8.1mph /  13km/h 64.1% 0in /  0.0mm
16:49 71.8 °F /  22.1 °C 59.5 °F /  15.3 °C 30.1in /  1018.1hPa ESE 4.7mph /  7.6km/h 8.5mph /  13.7km/h 65.2% 0in /  0.0mm
16:54 71.8 °F /  22.1 °C 59.9 °F /  15.5 °C 30.1in /  1018.3hPa ESE 4.4mph /  7.1km/h 9.2mph /  14.8km/h 66.3% 0in /  0.0mm
16:59 71.4 °F /  21.9 °C 60.1 °F /  15.6 °C 30.1in /  1018.3hPa ESE 4.3mph /  6.9km/h 10.7mph /  17.2km/h 67.2% 0in /  0.0mm
17:04 71.4 °F /  21.9 °C 60.3 °F /  15.7 °C 30.1in /  1018.3hPa ESE 6mph /  9.6km/h 11mph /  17.7km/h 68% 0in /  0.0mm
17:09 71.4 °F /  21.9 °C 60.3 °F /  15.7 °C 30.1in /  1018.3hPa ESE 6.4mph /  10.3km/h 11.8mph /  19km/h 68% 0in /  0.0mm
17:14 71.2 °F /  21.8 °C 60.3 °F /  15.7 °C 30.1in /  1018.2hPa ESE 6.8mph /  10.9km/h 12.7mph /  20.4km/h 68.1% 0in /  0.0mm
17:19 71.2 °F /  21.8 °C 60.1 °F /  15.6 °C 30.1in /  1018.2hPa ESE 6.9mph /  11.1km/h 13.8mph /  22.2km/h 68.2% 0in /  0.0mm
17:24 70.9 °F /  21.6 °C 60.3 °F /  15.7 °C 30.1in /  1018.2hPa ESE 7.4mph /  11.9km/h 15mph /  24.1km/h 69% 0in /  0.0mm
17:29 70.7 °F /  21.5 °C 60.1 °F /  15.6 °C 30.1in /  1018.2hPa ESE 7.6mph /  12.2km/h 15mph /  24.1km/h 69.2% 0in /  0.0mm
17:34 70.7 °F /  21.5 °C 60.3 °F /  15.7 °C 30.1in /  1018.2hPa ESE 6.7mph /  10.8km/h 10.7mph /  17.2km/h 69.7% 0in /  0.0mm
17:39 70.5 °F /  21.4 °C 60.3 °F /  15.7 °C 30.1in /  1018.3hPa ESE 6.4mph /  10.3km/h 11mph /  17.7km/h 69.9% 0in /  0.0mm
17:44 70.3 °F /  21.3 °C 60.3 °F /  15.7 °C 30.1in /  1018.3hPa ESE 6mph /  9.7km/h 9.2mph /  14.8km/h 70% 0in /  0.0mm
17:49 70.3 °F /  21.3 °C 60.1 °F /  15.6 °C 30.1in /  1018.3hPa ESE 5.9mph /  9.5km/h 9.2mph /  14.8km/h 70% 0in /  0.0mm
17:54 70.2 °F /  21.2 °C 60.1 °F /  15.6 °C 30.1in /  1018.3hPa Este 5.5mph /  8.9km/h 10.4mph /  16.7km/h 70.6% 0in /  0.0mm
17:59 69.8 °F /  21 °C 60.1 °F /  15.6 °C 30.1in /  1018.3hPa ESE 5.4mph /  8.7km/h 10mph /  16.1km/h 71.4% 0in /  0.0mm
18:04 69.4 °F /  20.8 °C 60.1 °F /  15.6 °C 30.1in /  1018.3hPa Este 6mph /  9.7km/h 10.7mph /  17.2km/h 72.3% 0in /  0.0mm
18:09 69.3 °F /  20.7 °C 60.1 °F /  15.6 °C 30.1in /  1018.4hPa ESE 6.2mph /  10km/h 11mph /  17.7km/h 73% 0in /  0.0mm
18:14 69.1 °F /  20.6 °C 60.3 °F /  15.7 °C 30.1in /  1018.4hPa ESE 5.6mph /  9km/h 11.2mph /  18km/h 73.9% 0in /  0.0mm
18:19 68.7 °F /  20.4 °C 60.1 °F /  15.6 °C 30.1in /  1018.4hPa ESE 5.4mph /  8.7km/h 12.3mph /  19.8km/h 74% 0in /  0.0mm
18:24 68.5 °F /  20.3 °C 60.3 °F /  15.7 °C 30.1in /  1018.4hPa ESE 6.2mph /  9.9km/h 13mph /  20.9km/h 74.8% 0in /  0.0mm
18:29 68.4 °F /  20.2 °C 60.1 °F /  15.6 °C 30.1in /  1018.4hPa ESE 6.4mph /  10.3km/h 13.8mph /  22.2km/h 75.1% 0in /  0.0mm
18:34 68.2 °F /  20.1 °C 60.3 °F /  15.7 °C 30.1in /  1018.4hPa ESE 6.4mph /  10.3km/h 14mph /  22.5km/h 76% 0in /  0.0mm
18:39 68 °F /  20 °C 60.3 °F /  15.7 °C 30.1in /  1018.5hPa ESE 6.4mph /  10.3km/h 12mph /  19.3km/h 76% 0in /  0.0mm
18:44 67.8 °F /  19.9 °C 60.1 °F /  15.6 °C 30.1in /  1018.5hPa ESE 6mph /  9.7km/h 9mph /  14.5km/h 76% 0in /  0.0mm
18:49 67.6 °F /  19.8 °C 60.3 °F /  15.7 °C 30.1in /  1018.5hPa ESE 5.9mph /  9.5km/h 9mph /  14.5km/h 77% 0in /  0.0mm
18:54 67.6 °F /  19.8 °C 60.3 °F /  15.7 °C 30.1in /  1018.8hPa ESE 5.4mph /  8.7km/h 8mph /  12.9km/h 77% 0in /  0.0mm
18:59 67.6 °F /  19.8 °C 60.1 °F /  15.6 °C 30.1in /  1018.8hPa ESE 5.2mph /  8.4km/h 7.6mph /  12.2km/h 77% 0in /  0.0mm
19:04 67.5 °F /  19.7 °C 60.1 °F /  15.6 °C 30.1in /  1018.8hPa ESE 4.8mph /  7.7km/h 8.5mph /  13.7km/h 77% 0in /  0.0mm
19:09 67.3 °F /  19.6 °C 60.1 °F /  15.6 °C 30.1in /  1019.0hPa Este 4.7mph /  7.6km/h 9mph /  14.5km/h 77.7% 0in /  0.0mm
19:14 67.1 °F /  19.5 °C 59.9 °F /  15.5 °C 30.1in /  1019.0hPa Este 4.2mph /  6.7km/h 7mph /  11.3km/h 78% 0in /  0.0mm
19:19 66.9 °F /  19.4 °C 59.7 °F /  15.4 °C 30.1in /  1019.0hPa Este 4mph /  6.5km/h 6.2mph /  10km/h 78% 0in /  0.0mm
19:24 66.7 °F /  19.3 °C 59.9 °F /  15.5 °C 30.1in /  1019.1hPa ENE 4mph /  6.5km/h 6mph /  9.7km/h 78.4% 0in /  0.0mm
19:29 66.6 °F /  19.2 °C 59.9 °F /  15.5 °C 30.1in /  1019.1hPa NE 4mph /  6.5km/h 5mph /  8km/h 79% 0in /  0.0mm
19:34 66.6 °F /  19.2 °C 59.7 °F /  15.4 °C 30.1in /  1019.1hPa NE 3.2mph /  5.1km/h 4.6mph /  7.4km/h 79% 0in /  0.0mm
19:39 66.4 °F /  19.1 °C 59.9 °F /  15.5 °C 30.1in /  1019.1hPa NE 2.9mph /  4.7km/h 5.2mph /  8.4km/h 79.6% 0in /  0.0mm
19:44 66.2 °F /  19 °C 59.7 °F /  15.4 °C 30.1in /  1019.1hPa NE 3mph /  4.9km/h 5mph /  8km/h 80% 0in /  0.0mm
19:49 66 °F /  18.9 °C 59.9 °F /  15.5 °C 30.1in /  1019.1hPa Este 3.1mph /  5km/h 5.2mph /  8.4km/h 80.4% 0in /  0.0mm
19:54 66 °F /  18.9 °C 60.1 °F /  15.6 °C 30.1in /  1019.1hPa Este 2.9mph /  4.7km/h 5mph /  8km/h 81% 0in /  0.0mm
19:59 66 °F /  18.9 °C 60.1 °F /  15.6 °C 30.1in /  1019.1hPa ENE 2.9mph /  4.7km/h 3mph /  4.8km/h 81% 0in /  0.0mm
20:04 65.8 °F /  18.8 °C 59.9 °F /  15.5 °C 30.1in /  1019.1hPa ENE 1.7mph /  2.8km/h 3.6mph /  5.8km/h 81% 0in /  0.0mm
20:09 65.8 °F /  18.8 °C 59.7 °F /  15.4 °C 30.1in /  1019.2hPa ENE 1.4mph /  2.2km/h 4.3mph /  6.9km/h 81% 0in /  0.0mm
20:14 65.7 °F /  18.7 °C 59.7 °F /  15.4 °C 30.1in /  1019.2hPa NE 2.1mph /  3.4km/h 5mph /  8km/h 81% 0in /  0.0mm
20:19 65.7 °F /  18.7 °C 59.7 °F /  15.4 °C 30.1in /  1019.2hPa NNE 2.4mph /  3.9km/h 5mph /  8km/h 81% 0in /  0.0mm
20:24 65.5 °F /  18.6 °C 59.7 °F /  15.4 °C 30.1in /  1019.3hPa NNE 2.1mph /  3.4km/h 3mph /  4.8km/h 82% 0in /  0.0mm
20:29 65.1 °F /  18.4 °C 59.5 °F /  15.3 °C 30.1in /  1019.3hPa NNE 2mph /  3.2km/h 3mph /  4.8km/h 82.1% 0in /  0.0mm
20:34 64.9 °F /  18.3 °C 59.7 °F /  15.4 °C 30.1in /  1019.3hPa NNE 1.9mph /  3km/h 3mph /  4.8km/h 83% 0in /  0.0mm
20:39 64.8 °F /  18.2 °C 59.5 °F /  15.3 °C 30.1in /  1019.5hPa NNE 1.8mph /  2.9km/h 2.4mph /  3.9km/h 83% 0in /  0.0mm
20:44 64.8 °F /  18.2 °C 59.5 °F /  15.3 °C 30.1in /  1019.5hPa North 0.5mph /  0.8km/h 3.5mph /  5.6km/h 83.3% 0in /  0.0mm
20:49 64.4 °F /  18 °C 59.5 °F /  15.3 °C 30.1in /  1019.5hPa Calm   3.6mph /  5.8km/h 84% 0in /  0.0mm
20:54 64.2 °F /  17.9 °C 59.4 °F /  15.2 °C 30.1in /  1019.5hPa NNO 1.4mph /  2.2km/h 4mph /  6.4km/h 84% 0in /  0.0mm
20:59 64 °F /  17.8 °C 59.4 °F /  15.2 °C 30.1in /  1019.4hPa NNO 1.8mph /  2.9km/h 3.5mph /  5.6km/h 84.8% 0in /  0.0mm
21:04 64 °F /  17.8 °C 59.4 °F /  15.2 °C 30.1in /  1019.4hPa NNO 0.4mph /  0.6km/h 3mph /  4.8km/h 85% 0in /  0.0mm
21:09 64 °F /  17.8 °C 59.4 °F /  15.2 °C 30.1in /  1019.5hPa Calm   2.3mph /  3.7km/h 85% 0in /  0.0mm
21:14 63.9 °F /  17.7 °C 59.4 °F /  15.2 °C 30.1in /  1019.5hPa Calm   3.5mph /  5.6km/h 85% 0in /  0.0mm
21:19 63.9 °F /  17.7 °C 59.4 °F /  15.2 °C 30.1in /  1019.5hPa Calm   3.5mph /  5.6km/h 85% 0in /  0.0mm
21:24 63.7 °F /  17.6 °C 59.4 °F /  15.2 °C 30.1in /  1019.5hPa NNO 1.5mph /  2.4km/h 3.5mph /  5.6km/h 85.6% 0in /  0.0mm
21:29 63.7 °F /  17.6 °C 59.4 °F /  15.2 °C 30.1in /  1019.5hPa NNO 2mph /  3.2km/h 3.6mph /  5.8km/h 86% 0in /  0.0mm
21:34 63.7 °F /  17.6 °C 59.4 °F /  15.2 °C 30.1in /  1019.5hPa NNO 1.9mph /  3km/h 4mph /  6.4km/h 86% 0in /  0.0mm
21:39 63.5 °F /  17.5 °C 59.2 °F /  15.1 °C 30.1in /  1019.7hPa NNO 1.8mph /  2.9km/h 3.5mph /  5.6km/h 86% 0in /  0.0mm
21:44 63.3 °F /  17.4 °C 59.2 °F /  15.1 °C 30.1in /  1019.7hPa NNO 1.8mph /  2.9km/h 3mph /  4.8km/h 86% 0in /  0.0mm
21:49 63.1 °F /  17.3 °C 59 °F /  15 °C 30.1in /  1019.7hPa NNO 1.8mph /  2.9km/h 3mph /  4.8km/h 86% 0in /  0.0mm
21:54 63.1 °F /  17.3 °C 59 °F /  15 °C 30.1in /  1019.7hPa NNO 0.4mph /  0.7km/h   86.1% 0in /  0.0mm
21:59 63 °F /  17.2 °C 59 °F /  15 °C 30.1in /  1019.6hPa Calm     87% 0in /  0.0mm
22:04 63 °F /  17.2 °C 59 °F /  15 °C 30.1in /  1019.6hPa Calm     87% 0in /  0.0mm
22:09 63 °F /  17.2 °C 59 °F /  15 °C 30.1in /  1019.6hPa Calm     87% 0in /  0.0mm
22:14 63 °F /  17.2 °C 59.2 °F /  15.1 °C 30.1in /  1019.6hPa Calm   2.9mph /  4.7km/h 87.6% 0in /  0.0mm
22:19 63.1 °F /  17.3 °C 59.4 °F /  15.2 °C 30.1in /  1019.6hPa Calm   3mph /  4.8km/h 87.5% 0in /  0.0mm
22:24 63.1 °F /  17.3 °C 59.2 °F /  15.1 °C 30.1in /  1019.7hPa Calm   2mph /  3.2km/h 87% 0in /  0.0mm
22:29 63.1 °F /  17.3 °C 59.2 °F /  15.1 °C 30.1in /  1019.7hPa Calm   1.4mph /  2.3km/h 87% 0in /  0.0mm
22:34 63 °F /  17.2 °C 59 °F /  15 °C 30.1in /  1019.7hPa Calm   2.4mph /  3.9km/h 87% 0in /  0.0mm
22:39 63 °F /  17.2 °C 59 °F /  15 °C 30.1in /  1019.7hPa Calm   3.6mph /  5.8km/h 87% 0in /  0.0mm
22:44 63 °F /  17.2 °C 59 °F /  15 °C 30.1in /  1019.5hPa NNO 1.4mph /  2.2km/h 4mph /  6.4km/h 87% 0in /  0.0mm
22:49 62.8 °F /  17.1 °C 58.8 °F /  14.9 °C 30.1in /  1019.5hPa North 1.8mph /  2.9km/h 4.6mph /  7.4km/h 87% 0in /  0.0mm
22:54 62.4 °F /  16.9 °C 58.5 °F /  14.7 °C 30.1in /  1019.5hPa ENE 1.9mph /  3.1km/h 5mph /  8km/h 87% 0in /  0.0mm
22:59 62.2 °F /  16.8 °C 58.3 °F /  14.6 °C 30.1in /  1019.4hPa Este 2mph /  3.2km/h 4.6mph /  7.4km/h 87% 0in /  0.0mm
23:04 62.1 °F /  16.7 °C 58.1 °F /  14.5 °C 30.1in /  1019.4hPa ESE 2mph /  3.2km/h 5mph /  8km/h 87% 0in /  0.0mm
23:09 61.9 °F /  16.6 °C 58.3 °F /  14.6 °C 30.1in /  1019.4hPa ESE 2mph /  3.2km/h 3mph /  4.8km/h 87.8% 0in /  0.0mm
23:14 61.9 °F /  16.6 °C 58.3 °F /  14.6 °C 30.1in /  1019.4hPa Calm     88% 0in /  0.0mm
23:19 61.7 °F /  16.5 °C 58.1 °F /  14.5 °C 30.1in /  1019.4hPa Calm     88% 0in /  0.0mm
23:24 61.5 °F /  16.4 °C 57.9 °F /  14.4 °C 30.1in /  1019.5hPa Calm   4.6mph /  7.4km/h 88% 0in /  0.0mm
23:29 61.3 °F /  16.3 °C 57.7 °F /  14.3 °C 30.1in /  1019.5hPa Calm   5mph /  8km/h 88% 0in /  0.0mm
23:34 61 °F /  16.1 °C 57.6 °F /  14.2 °C 30.1in /  1019.5hPa Oeste 2.1mph /  3.4km/h 5mph /  8km/h 88.6% 0in /  0.0mm
23:39 60.6 °F /  15.9 °C 57.4 °F /  14.1 °C 30.1in /  1019.5hPa Oeste 2.9mph /  4.7km/h 5mph /  8km/h 89% 0in /  0.0mm
23:44 60.6 °F /  15.9 °C 57.4 °F /  14.1 °C 30.1in /  1019.4hPa Oeste 1.8mph /  2.9km/h 2mph /  3.2km/h 89.2% 0in /  0.0mm
23:49 60.6 °F /  15.9 °C 57.7 °F /  14.3 °C 30.1in /  1019.4hPa Oeste 1.4mph /  2.2km/h   90% 0in /  0.0mm
23:54 60.6 °F /  15.9 °C 57.7 °F /  14.3 °C 30.1in /  1019.4hPa Oeste 0.4mph /  0.6km/h   90.3% 0in /  0.0mm
23:59 60.6 °F /  15.9 °C 58.1 °F /  14.5 °C 30.1in /  1019.3hPa Calm     91% 0in /  0.0mm
Murcia-Puente Tocinos, España
Compliments of Weather Underground - 3 mb

La estación de MeteoMurcia.com, publica sus datos en los siguientes proyectos:

Weather Underground PWS IMURCIAP2 Meteoclimatic www.awekas.at

W3Counter
Web Analytics